Time;durP1;ratioP1;P1;durP2;ratioP2;P2;SDS_P1;SDS_P2;PMS_P1;PMS_P2;Temp;Humidity;BMP_temperature;BMP_pressure;BME280_temperature;BME280_humidity;BME280_pressure;Samples;Min_cycle;Max_cycle;Signal;HPM_P1;HPM_P2
2023/07/09 00:01:17;;;;;;;7.93;5.60;;;;;;;24.15;53.38;101631.59;5031848;28;20037;-65
2023/07/09 00:03:43;;;;;;;8.95;5.57;;;;;;;24.19;53.37;101638.28;5028071;28;20029;-67
2023/07/09 00:06:09;;;;;;;9.00;6.20;;;;;;;24.21;53.52;101632.81;5030239;28;20029;-67
2023/07/09 00:08:34;;;;;;;8.82;6.22;;;;;;;24.20;53.21;101639.97;5036455;28;20041;-66
2023/07/09 00:11:00;;;;;;;9.57;6.25;;;;;;;24.19;53.01;101637.44;5026924;28;20041;-65
2023/07/09 00:13:27;;;;;;;9.48;6.70;;;;;;;24.21;53.24;101646.13;5041176;28;20044;-65
2023/07/09 00:16:02;;;;;;;9.02;6.13;;;;;;;24.16;53.14;101641.22;5036916;28;20051;-67
2023/07/09 00:18:28;;;;;;;9.75;5.97;;;;;;;24.21;53.39;101646.13;5031823;28;20028;-66
2023/07/09 00:20:53;;;;;;;10.85;6.32;;;;;;;24.20;53.57;101644.47;5033756;28;20025;-65
2023/07/09 00:23:19;;;;;;;9.25;6.15;;;;;;;24.21;53.19;101651.44;5031072;28;20568;-66
2023/07/09 00:25:45;;;;;;;10.60;5.90;;;;;;;24.18;53.65;101647.28;5031119;28;20140;-66
2023/07/09 00:28:14;;;;;;;8.35;5.70;;;;;;;24.20;53.04;101653.28;5028530;28;20505;-65
2023/07/09 00:30:39;;;;;;;7.45;5.50;;;;;;;24.21;53.49;101652.31;5029784;28;20056;-66
2023/07/09 00:33:05;;;;;;;8.63;6.43;;;;;;;24.21;53.49;101654.09;5029508;28;20072;-66
2023/07/09 00:35:30;;;;;;;8.23;5.77;;;;;;;24.18;53.19;101654.41;5031482;28;20037;-66
2023/07/09 00:38:00;;;;;;;10.23;6.10;;;;;;;24.20;53.52;101660.44;5028662;28;20277;-66
2023/07/09 00:40:26;;;;;;;9.18;5.65;;;;;;;24.20;53.20;101653.28;5029873;28;20034;-65
2023/07/09 00:42:53;;;;;;;10.15;6.05;;;;;;;24.17;53.52;101653.56;5029302;28;20496;-65
2023/07/09 00:45:22;;;;;;;8.00;5.70;;;;;;;24.16;53.80;101659.88;5030221;28;20045;-65
2023/07/09 00:48:06;;;;;;;8.93;5.35;;;;;;;24.19;53.42;101658.75;5028830;28;20040;-65
2023/07/09 00:50:34;;;;;;;8.98;6.18;;;;;;;24.18;53.49;101657.06;5033144;28;20060;-65
2023/07/09 00:53:09;;;;;;;8.95;5.93;;;;;;;24.18;53.17;101663.25;5033668;28;20529;-65
2023/07/09 00:55:40;;;;;;;9.07;5.93;;;;;;;24.19;53.18;101667.56;5036630;28;20037;-66
2023/07/09 00:58:09;;;;;;;10.45;5.97;;;;;;;24.19;53.37;101666.75;5035203;28;20478;-65
2023/07/09 01:00:46;;;;;;;8.90;6.00;;;;;;;24.19;53.32;101670.22;5025546;28;20124;-66
2023/07/09 01:03:18;;;;;;;8.75;5.93;;;;;;;24.19;53.26;101666.75;5032702;28;20389;-65
2023/07/09 01:05:45;;;;;;;8.13;5.78;;;;;;;24.19;53.37;101661.41;5031361;28;20477;-65
2023/07/09 01:08:12;;;;;;;9.57;5.60;;;;;;;24.17;53.78;101658.91;5027876;28;20035;-64
2023/07/09 01:10:40;;;;;;;8.75;6.03;;;;;;;24.16;53.81;101654.53;5032242;28;20033;-66
2023/07/09 01:13:08;;;;;;;8.43;5.78;;;;;;;24.19;53.47;101656.91;5030517;28;20468;-65
2023/07/09 01:15:34;;;;;;;9.82;6.18;;;;;;;24.16;53.69;101651.88;5032787;28;20040;-65
2023/07/09 01:18:00;;;;;;;7.50;5.43;;;;;;;24.17;53.34;101658.06;5021602;28;20132;-65
2023/07/09 01:20:26;;;;;;;9.13;5.75;;;;;;;24.18;53.75;101655.25;5032894;28;20211;-66
2023/07/09 01:22:56;;;;;;;10.70;5.85;;;;;;;24.18;53.60;101655.25;5027998;28;20036;-66
2023/07/09 01:25:23;;;;;;;8.13;5.57;;;;;;;24.18;53.28;101654.41;5040866;28;20460;-66
2023/07/09 01:27:48;;;;;;;8.32;5.95;;;;;;;24.19;53.53;101656.91;5030484;28;20095;-65
2023/07/09 01:30:22;;;;;;;9.52;6.03;;;;;;;24.16;53.49;101646.56;5020967;28;20033;-66
2023/07/09 01:32:49;;;;;;;7.50;5.65;;;;;;;24.18;53.78;101657.94;5028159;28;20465;-65
2023/07/09 01:35:17;;;;;;;10.02;6.00;;;;;;;24.18;53.58;101657.06;5040471;28;20033;-65
2023/07/09 01:37:43;;;;;;;8.40;5.70;;;;;;;24.18;53.95;101665.06;5038082;28;20037;-65
2023/07/09 01:40:10;;;;;;;8.60;5.93;;;;;;;24.18;53.47;101668.56;5028204;28;20037;-64
2023/07/09 01:42:38;;;;;;;9.32;6.07;;;;;;;24.19;53.99;101667.56;5040450;28;20033;-64
2023/07/09 01:45:05;;;;;;;8.40;6.03;;;;;;;24.18;53.49;101665.91;5020906;28;20036;-65
2023/07/09 01:47:30;;;;;;;7.95;5.68;;;;;;;24.19;54.00;101666.75;5020550;28;20537;-64
2023/07/09 01:49:57;;;;;;;8.65;5.78;;;;;;;24.20;53.76;101671.09;5027477;28;20035;-66
2023/07/09 01:52:25;;;;;;;7.05;5.50;;;;;;;24.19;53.52;101672.91;5032641;28;20080;-65
2023/07/09 01:54:50;;;;;;;8.55;5.65;;;;;;;24.19;53.60;101674.72;5028000;28;20044;-65
2023/07/09 01:57:22;;;;;;;7.78;5.47;;;;;;;24.18;53.60;101678.38;5024841;28;20121;-65
2023/07/09 01:59:48;;;;;;;8.15;5.93;;;;;;;24.18;54.06;101678.38;5037308;28;20406;-66
2023/07/09 02:02:18;;;;;;;9.20;6.47;;;;;;;24.17;53.54;101677.53;5024594;28;20034;-64
2023/07/09 02:04:51;;;;;;;8.57;5.53;;;;;;;24.18;53.69;101679.22;5033994;28;20041;-65
2023/07/09 02:07:17;;;;;;;7.55;5.50;;;;;;;24.17;53.91;101676.72;5034713;28;20044;-65
2023/07/09 02:09:43;;;;;;;7.45;5.45;;;;;;;24.17;53.61;101676.72;5028086;28;20040;-66
2023/07/09 02:12:10;;;;;;;7.50;5.47;;;;;;;24.19;54.11;101682.72;5043441;28;20064;-66
2023/07/09 02:14:36;;;;;;;8.90;6.20;;;;;;;24.19;53.99;101685.38;5041508;28;20041;-66
2023/07/09 02:17:01;;;;;;;8.18;6.03;;;;;;;24.19;53.60;101688.03;5040650;28;20539;-65
2023/07/09 02:19:28;;;;;;;8.45;5.97;;;;;;;24.16;54.05;101683.84;5028399;28;20037;-66
2023/07/09 02:21:54;;;;;;;8.52;6.30;;;;;;;24.16;53.93;101680.34;5042329;28;20033;-66
2023/07/09 02:24:19;;;;;;;7.63;6.05;;;;;;;24.18;53.74;101673.03;5030457;28;20049;-65
2023/07/09 02:26:45;;;;;;;8.02;5.57;;;;;;;24.18;54.26;101681.03;5039253;28;20051;-65
2023/07/09 02:29:10;;;;;;;7.75;5.70;;;;;;;24.17;53.85;101674.03;5041971;28;20112;-64
2023/07/09 02:31:35;;;;;;;8.70;5.40;;;;;;;24.16;54.08;101673.19;5036296;28;20480;-65
2023/07/09 02:34:02;;;;;;;8.98;5.60;;;;;;;24.17;53.63;101679.38;5043912;28;20029;-65
2023/07/09 02:36:28;;;;;;;9.20;5.53;;;;;;;24.18;54.16;101676.56;5038531;28;20037;-65
2023/07/09 02:38:53;;;;;;;9.25;6.10;;;;;;;24.17;53.80;101671.38;5023921;28;20393;-65
2023/07/09 02:41:18;;;;;;;8.00;5.80;;;;;;;24.15;53.62;101676.84;5023844;28;20155;-66
2023/07/09 02:43:44;;;;;;;7.32;5.45;;;;;;;24.16;54.24;101681.19;5026140;28;20277;-66
2023/07/09 02:46:09;;;;;;;8.68;6.20;;;;;;;24.17;53.65;101679.38;5024502;28;20037;-66
2023/07/09 02:48:34;;;;;;;6.95;5.15;;;;;;;24.18;54.13;101681.88;5023662;28;20164;-66
2023/07/09 02:51:00;;;;;;;7.82;5.88;;;;;;;24.18;53.87;101679.22;5028722;28;20083;-66
2023/07/09 02:53:27;;;;;;;9.23;6.23;;;;;;;24.18;53.80;101681.03;5023823;28;20041;-66
2023/07/09 02:55:52;;;;;;;8.18;5.60;;;;;;;24.16;53.99;101675.84;5023112;28;21028;-66
2023/07/09 02:58:17;;;;;;;8.48;6.35;;;;;;;24.16;54.12;101673.19;5037294;28;20028;-66
2023/07/09 03:00:43;;;;;;;8.65;6.05;;;;;;;24.16;54.19;101677.69;5042930;28;20040;-65
2023/07/09 03:03:08;;;;;;;9.75;5.95;;;;;;;24.18;53.86;101681.03;5031834;28;20064;-65
2023/07/09 03:05:34;;;;;;;8.18;5.85;;;;;;;24.19;53.65;101672.06;5040650;28;20469;-64
2023/07/09 03:07:59;;;;;;;8.73;6.10;;;;;;;24.17;53.91;101677.53;5042030;28;20036;-65
2023/07/09 03:10:25;;;;;;;9.35;6.05;;;;;;;24.19;54.03;101677.41;5023664;28;20079;-66
2023/07/09 03:12:50;;;;;;;8.50;6.00;;;;;;;24.17;54.15;101664.22;5024630;28;20389;-66
2023/07/09 03:15:15;;;;;;;9.45;6.13;;;;;;;24.19;53.64;101677.41;5038245;28;20473;-66
2023/07/09 03:17:41;;;;;;;8.88;6.10;;;;;;;24.16;54.04;101667.84;5035600;28;20061;-66
2023/07/09 03:20:07;;;;;;;8.00;5.88;;;;;;;24.16;53.63;101672.34;5026039;28;20195;-66
2023/07/09 03:22:33;;;;;;;9.18;5.93;;;;;;;24.16;53.84;101672.34;5029457;28;20090;-66
2023/07/09 03:24:58;;;;;;;9.63;6.28;;;;;;;24.17;53.98;101674.88;5026359;28;20453;-65
2023/07/09 03:27:23;;;;;;;8.90;6.23;;;;;;;24.17;54.20;101674.03;5036509;28;20036;-66
2023/07/09 03:29:48;;;;;;;8.90;6.53;;;;;;;24.16;54.06;101667.84;5042343;28;20660;-65
2023/07/09 03:32:14;;;;;;;8.57;6.27;;;;;;;24.17;53.99;101674.88;5042665;28;20025;-66
2023/07/09 03:34:39;;;;;;;9.30;6.22;;;;;;;24.16;54.07;101673.19;5026340;28;20724;-66
2023/07/09 03:37:05;;;;;;;9.48;6.43;;;;;;;24.18;53.66;101673.03;5038740;28;20033;-65
2023/07/09 03:39:30;;;;;;;8.40;6.32;;;;;;;24.18;53.72;101667.72;5022467;28;20060;-66
2023/07/09 03:41:55;;;;;;;8.70;6.65;;;;;;;24.18;54.12;101667.72;5022419;28;20036;-66
2023/07/09 03:44:20;;;;;;;9.40;6.63;;;;;;;24.16;54.07;101672.34;5022639;28;20030;-64
2023/07/09 03:46:46;;;;;;;9.10;5.93;;;;;;;24.15;54.15;101665.34;5039249;28;20262;-66
2023/07/09 03:49:11;;;;;;;10.05;6.70;;;;;;;24.16;54.18;101669.69;5042131;28;20082;-66
2023/07/09 03:51:36;;;;;;;8.68;6.68;;;;;;;24.17;53.93;101671.38;5045677;28;20029;-66
2023/07/09 03:54:02;;;;;;;9.95;6.50;;;;;;;24.16;53.84;101669.69;5022477;28;20033;-66
2023/07/09 03:56:27;;;;;;;8.75;6.50;;;;;;;24.18;54.24;101673.91;5029319;28;20482;-66
2023/07/09 03:58:53;;;;;;;9.20;6.32;;;;;;;24.16;53.78;101673.19;5025809;28;20033;-67
2023/07/09 04:01:18;;;;;;;10.15;6.38;;;;;;;24.15;53.70;101673.31;5030147;28;20020;-66
2023/07/09 04:03:43;;;;;;;8.90;6.03;;;;;;;24.17;53.82;101674.03;5038319;28;20103;-67
2023/07/09 04:06:09;;;;;;;8.30;6.45;;;;;;;24.15;53.68;101671.53;5030954;28;20470;-66
2023/07/09 04:08:34;;;;;;;8.60;6.35;;;;;;;24.17;54.08;101674.88;5025119;28;20037;-66
2023/07/09 04:11:01;;;;;;;9.13;6.43;;;;;;;24.17;54.13;101674.03;5038149;28;20080;-66
2023/07/09 04:13:28;;;;;;;8.23;6.18;;;;;;;24.15;54.13;101668.88;5027586;28;20258;-66
2023/07/09 04:15:53;;;;;;;8.82;6.80;;;;;;;24.14;54.34;101666.34;5041098;28;20037;-65
2023/07/09 04:18:18;;;;;;;8.90;6.35;;;;;;;24.17;54.18;101677.53;5041697;28;20109;-66
2023/07/09 04:20:49;;;;;;;7.97;6.38;;;;;;;24.16;54.13;101683.00;5036184;28;20025;-66
2023/07/09 04:23:14;;;;;;;11.20;7.30;;;;;;;24.17;54.19;101676.72;5022202;28;20474;-66
2023/07/09 04:25:39;;;;;;;8.45;6.63;;;;;;;24.17;54.24;101672.22;5021540;28;20055;-66
2023/07/09 04:28:05;;;;;;;9.32;6.45;;;;;;;24.16;53.97;101672.34;5021609;28;20091;-66
2023/07/09 04:30:31;;;;;;;9.95;6.75;;;;;;;24.17;54.04;101676.72;5030907;28;20090;-65
2023/07/09 04:32:57;;;;;;;7.80;6.20;;;;;;;24.16;54.28;101680.34;5038890;28;20086;-66
2023/07/09 04:35:23;;;;;;;8.45;6.57;;;;;;;24.16;54.31;101678.50;5037741;28;20363;-66
2023/07/09 04:37:49;;;;;;;9.57;6.68;;;;;;;24.17;54.06;101671.38;5029181;28;20443;-65
2023/07/09 04:40:15;;;;;;;8.00;6.30;;;;;;;24.15;54.14;101674.19;5040413;28;20041;-66
2023/07/09 04:42:40;;;;;;;9.10;6.45;;;;;;;24.16;54.27;101672.34;5021297;28;20083;-66
2023/07/09 04:45:08;;;;;;;8.23;6.18;;;;;;;24.16;54.32;101673.19;5032817;28;20037;-66
2023/07/09 04:47:33;;;;;;;9.85;6.60;;;;;;;24.09;54.64;101664.13;5026980;28;20540;-66
2023/07/09 04:49:59;;;;;;;8.27;6.35;;;;;;;24.15;54.22;101671.53;5024849;28;20041;-65
2023/07/09 04:52:24;;;;;;;12.33;6.90;;;;;;;24.14;54.69;101666.34;5037990;28;20033;-66
2023/07/09 04:54:50;;;;;;;9.30;6.68;;;;;;;24.14;54.29;101664.50;5021220;28;20393;-65
2023/07/09 04:57:16;;;;;;;9.00;6.80;;;;;;;24.14;54.62;101669.84;5021034;28;20030;-66
2023/07/09 04:59:41;;;;;;;8.80;6.68;;;;;;;24.14;54.73;101667.16;5032408;28;20025;-66
2023/07/09 05:02:07;;;;;;;8.30;6.70;;;;;;;24.09;54.78;101659.63;5040941;28;20040;-66
2023/07/09 05:04:33;;;;;;;9.80;6.70;;;;;;;24.16;54.46;101667.03;5041071;28;20254;-66
2023/07/09 05:06:58;;;;;;;9.98;6.72;;;;;;;24.13;54.63;101670.81;5040915;28;20485;-65
2023/07/09 05:09:24;;;;;;;9.65;7.15;;;;;;;24.14;54.41;101669.84;5029857;28;20037;-65
2023/07/09 05:11:51;;;;;;;9.52;6.60;;;;;;;24.15;54.39;101665.34;5032905;28;20371;-65
2023/07/09 05:14:16;;;;;;;9.00;6.82;;;;;;;24.14;54.45;101667.16;5033249;28;20030;-65
2023/07/09 05:16:43;;;;;;;9.05;6.78;;;;;;;24.14;54.94;101664.50;5029445;28;20060;-66
2023/07/09 05:19:08;;;;;;;8.38;6.55;;;;;;;24.15;54.91;101671.53;5031603;28;20034;-67
2023/07/09 05:21:34;;;;;;;9.33;7.07;;;;;;;24.16;54.86;101665.19;5020828;28;20409;-65
2023/07/09 05:24:00;;;;;;;8.48;6.55;;;;;;;24.14;54.85;101675.16;5028729;28;20269;-66
2023/07/09 05:26:25;;;;;;;10.60;6.95;;;;;;;24.13;54.44;101667.31;5020617;28;20080;-66
2023/07/09 05:28:50;;;;;;;10.75;7.07;;;;;;;24.15;54.88;101670.66;5038344;28;20025;-65
2023/07/09 05:31:15;;;;;;;8.95;6.97;;;;;;;24.14;54.59;101671.66;5033777;28;20043;-65
2023/07/09 05:33:41;;;;;;;9.50;7.32;;;;;;;24.16;55.04;101669.69;5044943;28;20079;-65
2023/07/09 05:36:07;;;;;;;10.30;6.45;;;;;;;24.16;55.11;101667.03;5032858;28;20301;-66
2023/07/09 05:38:32;;;;;;;8.55;6.85;;;;;;;24.15;55.01;101662.69;5030564;28;20029;-66
2023/07/09 05:41:04;;;;;;;9.13;7.13;;;;;;;24.12;54.93;101658.50;5028788;28;20039;-65
2023/07/09 05:43:30;;;;;;;9.02;6.68;;;;;;;24.15;54.62;101660.88;5034972;28;20033;-65
2023/07/09 05:45:55;;;;;;;10.55;6.68;;;;;;;24.16;55.11;101664.38;5039232;28;20033;-66
2023/07/09 05:48:20;;;;;;;8.90;7.15;;;;;;;24.14;54.98;101667.16;5040188;28;20091;-66
2023/07/09 05:50:49;;;;;;;9.13;6.90;;;;;;;24.17;54.97;101672.22;5027871;28;20037;-67
2023/07/09 05:53:14;;;;;;;10.80;7.38;;;;;;;24.16;54.67;101661.72;5030239;28;20378;-66
2023/07/09 05:55:39;;;;;;;10.30;7.10;;;;;;;24.14;54.73;101667.16;5027267;28;20033;-65
2023/07/09 05:58:05;;;;;;;9.77;6.95;;;;;;;24.16;54.86;101670.53;5036321;28;20485;-66
2023/07/09 06:00:30;;;;;;;11.52;7.13;;;;;;;24.18;54.82;101673.91;5031317;28;20029;-66
2023/07/09 06:02:57;;;;;;;7.87;6.53;;;;;;;24.17;55.15;101674.88;5032215;28;20467;-66
2023/07/09 06:05:22;;;;;;;9.45;6.75;;;;;;;24.19;54.91;101672.06;5031668;28;20282;-65
2023/07/09 06:07:48;;;;;;;9.68;7.03;;;;;;;24.11;54.44;101663.97;5038921;28;20029;-66
2023/07/09 06:10:13;;;;;;;10.40;7.15;;;;;;;24.18;55.19;101678.38;5043074;28;20436;-66
2023/07/09 06:12:40;;;;;;;10.40;6.88;;;;;;;24.19;54.66;101683.53;5042411;28;20117;-66
2023/07/09 06:15:06;;;;;;;9.18;7.10;;;;;;;24.19;54.94;101682.72;5042845;28;20032;-66
2023/07/09 06:17:31;;;;;;;9.25;6.38;;;;;;;24.18;54.53;101678.38;5040925;28;20057;-65
2023/07/09 06:19:56;;;;;;;8.70;6.80;;;;;;;24.19;55.17;101683.53;5024393;28;20037;-65
2023/07/09 06:22:22;;;;;;;8.30;6.78;;;;;;;24.19;54.45;101686.22;5023820;28;20034;-67
2023/07/09 06:24:47;;;;;;;9.48;6.47;;;;;;;24.21;54.78;101684.25;5025368;28;20137;-66
2023/07/09 06:27:12;;;;;;;7.80;6.35;;;;;;;24.22;54.96;101685.94;5043461;28;20139;-66
2023/07/09 06:29:38;;;;;;;9.55;7.03;;;;;;;24.22;54.80;101687.75;5029384;28;20037;-64
2023/07/09 06:32:04;;;;;;;8.85;6.65;;;;;;;24.21;54.73;101680.75;5040062;28;20041;-67
2023/07/09 06:34:29;;;;;;;10.82;6.82;;;;;;;24.26;54.70;101681.16;5027780;28;20403;-65
2023/07/09 06:36:56;;;;;;;9.70;6.55;;;;;;;24.35;54.42;101677.59;5025124;28;20044;-66
2023/07/09 06:39:21;;;;;;;11.43;7.38;;;;;;;24.44;54.43;101681.25;5027563;28;20033;-64
2023/07/09 06:41:47;;;;;;;9.27;7.00;;;;;;;24.44;54.07;101678.56;5032725;28;20025;-65
2023/07/09 06:44:12;;;;;;;9.52;6.65;;;;;;;24.52;53.83;101681.34;5034282;28;20522;-67
2023/07/09 06:46:37;;;;;;;9.43;6.18;;;;;;;24.47;54.40;101685.41;5032942;28;20147;-69
2023/07/09 06:49:05;;;;;;;9.70;6.28;;;;;;;24.41;54.36;101678.88;5029058;28;20037;-68
2023/07/09 06:51:30;;;;;;;7.28;6.05;;;;;;;24.39;54.68;101681.69;5026721;28;20812;-67
2023/07/09 06:53:56;;;;;;;12.07;6.10;;;;;;;24.35;54.99;101679.44;5033840;28;20033;-67
2023/07/09 06:56:21;;;;;;;8.90;6.30;;;;;;;24.37;55.16;101686.31;5030579;28;20033;-65
2023/07/09 06:58:47;;;;;;;10.52;6.60;;;;;;;24.38;55.10;101689.81;5037809;28;20361;-67
2023/07/09 07:01:12;;;;;;;8.07;6.22;;;;;;;24.42;54.42;101683.22;5030204;28;20492;-68
2023/07/09 07:03:39;;;;;;;11.63;6.35;;;;;;;24.51;54.35;101684.16;5032356;28;20534;-71
2023/07/09 07:06:06;;;;;;;8.18;5.90;;;;;;;24.57;53.99;101692.41;5027896;28;21057;-68
2023/07/09 07:08:32;;;;;;;7.93;6.15;;;;;;;24.61;53.76;101688.50;5034941;28;20183;-68
2023/07/09 07:11:02;;;;;;;11.90;6.18;;;;;;;24.64;53.74;101692.66;5039609;28;20198;-69
2023/07/09 07:13:30;;;;;;;10.02;6.55;;;;;;;24.67;53.86;101687.03;5038853;28;20040;-65
2023/07/09 07:15:56;;;;;;;8.88;6.50;;;;;;;24.69;54.06;101694.88;5034449;28;20090;-65
2023/07/09 07:18:22;;;;;;;10.95;6.18;;;;;;;24.72;53.91;101697.25;5028600;28;20462;-65
2023/07/09 07:20:47;;;;;;;10.55;6.70;;;;;;;24.73;53.63;101701.63;5033005;28;20036;-65
2023/07/09 07:23:13;;;;;;;8.25;5.50;;;;;;;24.75;53.86;101703.16;5030320;28;20057;-67
2023/07/09 07:25:38;;;;;;;9.45;6.90;;;;;;;24.77;53.62;101703.00;5031134;28;20494;-65
2023/07/09 07:28:03;;;;;;;8.35;5.93;;;;;;;24.79;53.66;101707.19;4157670;28;10000444;-66
2023/07/09 07:30:29;;;;;;;8.80;6.18;;;;;;;24.83;53.88;101707.72;5033870;28;20175;-65
2023/07/09 07:32:54;;;;;;;7.75;5.65;;;;;;;24.83;53.57;101699.72;5032255;28;20516;-66
2023/07/09 07:35:19;;;;;;;7.15;5.55;;;;;;;24.87;53.65;101706.44;4149244;28;10001022;-66
2023/07/09 07:37:45;;;;;;;9.13;5.90;;;;;;;24.84;53.83;101704.06;5029262;28;20045;-63
2023/07/09 07:40:11;;;;;;;8.25;6.10;;;;;;;24.73;54.28;101693.63;5035119;28;20466;-63
2023/07/09 07:42:37;;;;;;;9.18;6.15;;;;;;;24.73;54.40;101697.09;5030470;28;20029;-64
2023/07/09 07:45:03;;;;;;;10.55;5.78;;;;;;;24.66;54.72;101690.72;5032369;28;20080;-64
2023/07/09 07:47:30;;;;;;;9.60;5.40;;;;;;;24.67;54.84;101697.69;5030498;28;20052;-64
2023/07/09 07:49:56;;;;;;;7.40;5.32;;;;;;;24.67;54.39;101692.38;5033525;28;20394;-64
2023/07/09 07:52:22;;;;;;;7.28;5.43;;;;;;;24.67;54.49;101699.53;5028508;28;20061;-64
2023/07/09 07:54:47;;;;;;;7.38;5.38;;;;;;;24.64;55.07;101695.31;5029818;28;20366;-63
2023/07/09 07:57:13;;;;;;;7.63;5.75;;;;;;;24.65;54.79;101701.50;5028519;28;20033;-64
2023/07/09 07:59:38;;;;;;;11.13;6.18;;;;;;;24.63;54.54;101696.34;5028127;28;20076;-64
2023/07/09 08:02:06;;;;;;;7.43;5.50;;;;;;;24.62;54.39;101703.50;5031534;28;20034;-64
2023/07/09 08:04:32;;;;;;;8.32;5.13;;;;;;;24.59;54.74;101686.94;5040077;28;20040;-64
2023/07/09 08:06:58;;;;;;;9.88;6.25;;;;;;;24.57;54.82;101687.09;5038413;28;20338;-65
2023/07/09 08:09:24;;;;;;;7.28;5.72;;;;;;;24.58;54.24;101686.13;5031805;28;20489;-69
2023/07/09 08:11:49;;;;;;;7.75;5.25;;;;;;;24.59;54.52;101689.59;5039034;28;20167;-66
2023/07/09 08:14:15;;;;;;;8.70;5.82;;;;;;;24.56;54.86;101680.09;5027258;28;20033;-64
2023/07/09 08:16:41;;;;;;;8.88;5.63;;;;;;;24.56;54.90;101684.53;5025338;28;20056;-65
2023/07/09 08:19:06;;;;;;;8.50;6.25;;;;;;;24.56;54.77;101682.75;5026621;28;20064;-64
2023/07/09 08:21:32;;;;;;;8.57;5.47;;;;;;;24.58;54.61;101686.13;5032332;28;20529;-66
2023/07/09 08:23:57;;;;;;;9.35;5.60;;;;;;;24.58;55.07;101693.28;5034513;28;20396;-67
2023/07/09 08:26:24;;;;;;;7.97;5.90;;;;;;;24.57;55.08;101692.41;5028952;28;20473;-65
2023/07/09 08:28:50;;;;;;;9.07;6.18;;;;;;;24.55;55.16;101689.03;5033288;28;20281;-65
2023/07/09 08:31:15;;;;;;;8.73;5.20;;;;;;;24.57;54.82;101683.59;5032780;28;20032;-65
2023/07/09 08:33:41;;;;;;;7.63;5.25;;;;;;;24.57;55.01;101684.41;5030351;28;20531;-65
2023/07/09 08:36:06;;;;;;;7.82;5.40;;;;;;;24.55;54.71;101680.22;5033502;28;20064;-66
2023/07/09 08:38:31;;;;;;;10.00;5.63;;;;;;;24.55;54.64;101675.72;5028406;28;20479;-65
2023/07/09 08:41:00;;;;;;;10.48;5.70;;;;;;;24.54;54.90;101670.53;5032875;28;20033;-65
2023/07/09 08:43:53;;;;;;;8.35;5.65;;;;;;;24.55;54.77;101678.38;5028324;28;20037;-65
2023/07/09 08:46:56;;;;;;;9.35;5.82;;;;;;;24.55;55.10;101681.03;5027192;28;20374;-65
2023/07/09 08:49:30;;;;;;;8.15;5.43;;;;;;;24.54;54.55;101681.19;5027683;28;20033;-65
2023/07/09 08:51:57;;;;;;;8.02;5.35;;;;;;;24.53;54.88;101674.16;5029692;28;21240;-66
2023/07/09 08:54:31;;;;;;;7.88;5.32;;;;;;;24.53;55.05;101683.03;5032647;28;20543;-65
2023/07/09 08:56:59;;;;;;;;;;;;;;;24.58;54.61;101693.28;5030322;28;20902;-66
2023/07/09 08:59:26;;;;;;;7.90;5.35;;;;;;;24.58;54.66;101685.28;5031181;28;20425;-63
2023/07/09 09:01:59;;;;;;;7.10;4.97;;;;;;;24.55;54.79;101674.88;5033283;28;20060;-65
2023/07/09 09:04:28;;;;;;;7.87;5.63;;;;;;;24.54;54.86;101676.69;5028252;28;20034;-65
2023/07/09 09:07:02;;;;;;;7.85;5.50;;;;;;;24.55;54.65;101678.38;5029667;28;20018;-63
2023/07/09 09:09:38;;;;;;;8.05;4.97;;;;;;;24.55;54.76;101670.38;5030516;28;20041;-65
2023/07/09 09:12:19;;;;;;;7.10;5.40;;;;;;;24.54;54.43;101667.88;5034473;28;20127;-63
2023/07/09 09:14:56;;;;;;;7.93;5.65;;;;;;;24.52;54.41;101662.69;5034742;28;20452;-64
2023/07/09 09:17:26;;;;;;;9.02;5.00;;;;;;;24.54;54.38;101671.38;5031524;28;20096;-64
2023/07/09 09:20:22;;;;;;;8.57;5.45;;;;;;;24.54;54.47;101668.69;5032531;28;20029;-65
2023/07/09 09:23:08;;;;;;;7.07;5.10;;;;;;;24.54;54.47;101668.69;5035832;28;20557;-64
2023/07/09 09:25:37;;;;;;;7.53;5.00;;;;;;;24.55;54.25;101661.56;5023886;28;20026;-65
2023/07/09 09:28:03;;;;;;;6.50;4.70;;;;;;;24.56;54.30;101666.78;5024309;28;20220;-65
2023/07/09 09:30:30;;;;;;;8.00;5.60;;;;;;;24.56;54.53;101661.44;5030015;28;20030;-64
2023/07/09 09:33:00;;;;;;;7.50;5.03;;;;;;;24.55;54.68;101659.72;5026992;28;21101;-66
2023/07/09 09:35:31;;;;;;;8.75;5.47;;;;;;;24.53;54.36;101650.19;5024618;28;20036;-65
2023/07/09 09:37:58;;;;;;;7.15;4.85;;;;;;;24.56;54.41;101656.13;5031415;28;20060;-65
2023/07/09 09:40:26;;;;;;;7.55;5.22;;;;;;;24.56;54.45;101645.47;5028887;28;20121;-66
2023/07/09 09:42:57;;;;;;;7.72;4.78;;;;;;;24.54;54.58;101639.38;5022602;28;20047;-65
2023/07/09 09:45:44;;;;;;;7.68;4.85;;;;;;;24.55;54.41;101638.41;5027951;28;20084;-66
2023/07/09 09:48:32;;;;;;;6.30;4.45;;;;;;;24.56;54.32;101637.47;5030018;28;20056;-66
2023/07/09 09:51:01;;;;;;;7.30;4.97;;;;;;;24.56;54.44;101631.25;5028410;28;20040;-65
2023/07/09 09:53:28;;;;;;;8.10;5.00;;;;;;;24.59;54.45;101636.31;5027031;28;20477;-65
2023/07/09 09:55:55;;;;;;;7.70;5.18;;;;;;;24.57;54.75;101623.13;5031284;28;20033;-65
2023/07/09 09:58:26;;;;;;;7.53;5.03;;;;;;;24.57;54.67;101624.97;5024840;28;20495;-64
2023/07/09 10:00:54;;;;;;;8.23;5.00;;;;;;;24.58;55.02;101619.50;5029295;28;20078;-65
2023/07/09 10:03:20;;;;;;;7.43;5.40;;;;;;;24.56;55.15;101616.16;5024775;28;20033;-65
2023/07/09 10:05:57;;;;;;;8.48;5.25;;;;;;;24.57;54.69;101625.81;5029665;28;20091;-65
2023/07/09 10:08:30;;;;;;;7.28;4.93;;;;;;;24.59;54.94;101633.66;5038694;28;20036;-66
2023/07/09 10:11:22;;;;;;;10.70;5.15;;;;;;;24.57;54.57;101631.13;5025401;28;20501;-65
2023/07/09 10:13:49;;;;;;;7.82;4.57;;;;;;;24.59;54.76;101623.00;5025282;28;20051;-66
2023/07/09 10:16:20;;;;;;;7.45;4.50;;;;;;;24.60;54.78;101632.66;5036012;28;20196;-66
2023/07/09 10:19:03;;;;;;;7.40;4.75;;;;;;;24.62;55.01;101641.34;5033851;28;20091;-66
2023/07/09 10:21:43;;;;;;;6.88;4.57;;;;;;;24.59;55.08;101644.31;5033695;28;20422;-66
2023/07/09 10:24:46;;;;;;;7.38;4.70;;;;;;;24.61;55.02;101655.69;5042628;28;20024;-66
2023/07/09 10:27:21;;;;;;;7.03;4.72;;;;;;;24.62;54.81;101650.19;5041573;28;20044;-66
2023/07/09 10:30:24;;;;;;;8.68;4.93;;;;;;;24.58;54.96;101654.13;5024199;28;20535;-66
2023/07/09 10:33:09;;;;;;;9.48;4.88;;;;;;;24.62;55.09;101665.34;5033891;28;20041;-67
2023/07/09 10:36:09;;;;;;;7.35;4.60;;;;;;;24.65;55.24;101662.38;5030380;28;20099;-66
2023/07/09 10:38:48;;;;;;;7.68;4.45;;;;;;;24.65;55.52;101648.22;5025798;28;20048;-68
2023/07/09 10:41:16;;;;;;;6.82;5.00;;;;;;;24.67;55.62;101652.41;5031357;28;20025;-67
2023/07/09 10:43:49;;;;;;;13.93;6.15;;;;;;;24.67;55.33;101660.38;5032593;28;20029;-67
2023/07/09 10:46:24;;;;;;;13.30;6.60;;;;;;;24.66;55.55;101655.22;5027931;28;20038;-64
2023/07/09 10:48:55;;;;;;;12.68;6.68;;;;;;;24.67;55.61;101651.56;5033163;28;20044;-66
2023/07/09 10:51:29;;;;;;;13.38;6.70;;;;;;;24.71;56.00;101644.97;5029472;28;20122;-66
2023/07/09 10:54:03;;;;;;;10.38;6.03;;;;;;;24.72;55.60;101646.63;5031756;28;20071;-64
2023/07/09 10:56:32;;;;;;;10.25;5.78;;;;;;;24.72;56.23;101630.63;5026809;28;20050;-69
2023/07/09 10:59:28;;;;;;;14.38;6.25;;;;;;;24.74;56.27;101640.16;5027456;28;20071;-65
2023/07/09 11:02:21;;;;;;;13.43;5.50;;;;;;;24.81;55.73;101629.72;5050249;28;20036;-65
2023/07/09 11:04:56;;;;;;;9.20;4.80;;;;;;;24.86;55.34;101630.13;5024264;28;20080;-66
2023/07/09 11:07:59;;;;;;;14.52;5.80;;;;;;;24.94;55.39;101634.69;5040841;28;20028;-66
2023/07/09 11:10:41;;;;;;;9.50;4.82;;;;;;;24.99;55.34;101630.59;5023206;28;20037;-66
2023/07/09 11:13:39;;;;;;;8.48;5.00;;;;;;;25.04;54.78;101643.47;5033540;28;20052;-64
2023/07/09 11:16:07;;;;;;;9.73;5.10;;;;;;;25.10;54.76;101655.34;5027419;28;20131;-66
2023/07/09 11:18:35;;;;;;;8.20;5.07;;;;;;;25.11;54.80;101649.88;5034202;28;20057;-64
2023/07/09 11:21:15;;;;;;;7.97;5.00;;;;;;;25.13;55.10;101658.59;5027022;28;20037;-64
2023/07/09 11:23:51;;;;;;;7.43;4.80;;;;;;;25.13;54.87;101657.72;5031733;28;20041;-66
2023/07/09 11:26:26;;;;;;;8.40;4.80;;;;;;;25.16;54.82;101668.09;5029132;28;20029;-67
2023/07/09 11:28:55;;;;;;;7.80;4.85;;;;;;;25.20;54.94;101656.13;5032581;28;20099;-67
2023/07/09 11:31:23;;;;;;;9.45;4.80;;;;;;;25.20;54.49;101658.81;5037035;28;20033;-68